sensor_id;sensor_type;location;lat;lon;timestamp;temperature;humidity
45315;SHT31;31051;51.540;5.852;2023-06-04T09:25:35;23.7;30.4
45315;SHT31;31051;51.540;5.852;2023-06-04T09:38:22;24.2;31.1
45315;SHT31;31051;51.540;5.852;2023-06-04T09:51:09;24.5;28.5
45315;SHT31;31051;51.540;5.852;2023-06-04T10:03:58;25.4;27.9
45315;SHT31;31051;51.540;5.852;2023-06-04T10:16:55;24.8;28.3
45315;SHT31;31051;51.540;5.852;2023-06-04T10:29:43;26.2;27.6
45315;SHT31;31051;51.540;5.852;2023-06-04T10:42:30;25.4;28.1
45315;SHT31;31051;51.540;5.852;2023-06-04T10:55:18;25.7;29.6
45315;SHT31;31051;51.540;5.852;2023-06-04T11:08:05;26.1;28.5
45315;SHT31;31051;51.540;5.852;2023-06-04T11:20:52;25.3;30.6
45315;SHT31;31051;51.540;5.852;2023-06-04T11:33:40;26.0;28.3
45315;SHT31;31051;51.540;5.852;2023-06-04T11:46:27;26.6;27.9
45315;SHT31;31051;51.540;5.852;2023-06-04T11:59:15;26.0;29.0
45315;SHT31;31051;51.540;5.852;2023-06-04T12:12:02;26.4;27.8
45315;SHT31;31051;51.540;5.852;2023-06-04T12:24:50;25.9;27.6
45315;SHT31;31051;51.540;5.852;2023-06-04T12:37:37;26.1;28.2
45315;SHT31;31051;51.540;5.852;2023-06-04T12:50:25;25.4;28.4
45315;SHT31;31051;51.540;5.852;2023-06-04T13:03:12;26.2;28.8
45315;SHT31;31051;51.540;5.852;2023-06-04T13:15:59;26.6;27.1
45315;SHT31;31051;51.540;5.852;2023-06-04T13:28:47;25.8;28.3
45315;SHT31;31051;51.540;5.852;2023-06-04T13:41:34;26.7;27.3
45315;SHT31;31051;51.540;5.852;2023-06-04T13:54:22;26.6;28.1
45315;SHT31;31051;51.540;5.852;2023-06-04T14:07:09;26.2;28.4
45315;SHT31;31051;51.540;5.852;2023-06-04T14:19:56;26.4;28.7
45315;SHT31;31051;51.540;5.852;2023-06-04T14:32:44;25.6;31.2
45315;SHT31;31051;51.540;5.852;2023-06-04T14:45:31;25.8;29.9
45315;SHT31;31051;51.540;5.852;2023-06-04T14:58:19;26.0;30.9
45315;SHT31;31051;51.540;5.852;2023-06-04T15:11:06;25.7;30.8
45315;SHT31;31051;51.540;5.852;2023-06-04T15:23:54;25.4;31.0
45315;SHT31;31051;51.540;5.852;2023-06-04T15:36:41;25.5;30.9
45315;SHT31;31051;51.540;5.852;2023-06-04T15:49:29;25.6;31.3
45315;SHT31;31051;51.540;5.852;2023-06-04T16:02:16;25.5;31.5
45315;SHT31;31051;51.540;5.852;2023-06-04T16:15:04;25.1;30.9
45315;SHT31;31051;51.540;5.852;2023-06-04T16:27:51;24.7;32.1
45315;SHT31;31051;51.540;5.852;2023-06-04T16:40:38;25.0;31.9
45315;SHT31;31051;51.540;5.852;2023-06-04T16:53:26;25.4;31.5
45315;SHT31;31051;51.540;5.852;2023-06-04T17:06:13;25.1;32.4
45315;SHT31;31051;51.540;5.852;2023-06-04T17:19:01;24.4;33.3
45315;SHT31;31051;51.540;5.852;2023-06-04T17:31:48;24.2;34.3
45315;SHT31;31051;51.540;5.852;2023-06-04T17:44:36;24.3;33.4
45315;SHT31;31051;51.540;5.852;2023-06-04T17:57:23;23.9;34.0
45315;SHT31;31051;51.540;5.852;2023-06-04T18:10:12;23.6;34.6
45315;SHT31;31051;51.540;5.852;2023-06-04T18:23:10;23.6;34.9
45315;SHT31;31051;51.540;5.852;2023-06-04T18:36:08;23.3;35.6
45315;SHT31;31051;51.540;5.852;2023-06-04T18:48:55;23.3;36.5
45315;SHT31;31051;51.540;5.852;2023-06-04T19:01:42;22.8;37.8
45315;SHT31;31051;51.540;5.852;2023-06-04T19:14:31;22.0;39.8
45315;SHT31;31051;51.540;5.852;2023-06-04T19:27:19;21.0;44.1
45315;SHT31;31051;51.540;5.852;2023-06-04T19:40:08;20.3;47.9
45315;SHT31;31051;51.540;5.852;2023-06-04T19:53:07;19.5;50.5
45315;SHT31;31051;51.540;5.852;2023-06-04T20:05:55;19.0;53.5
45315;SHT31;31051;51.540;5.852;2023-06-04T20:18:45;18.6;56.3
45315;SHT31;31051;51.540;5.852;2023-06-04T20:31:44;18.1;59.4
45315;SHT31;31051;51.540;5.852;2023-06-04T20:44:43;17.7;61.3
45315;SHT31;31051;51.540;5.852;2023-06-04T20:57:43;17.4;62.6
45315;SHT31;31051;51.540;5.852;2023-06-04T21:10:42;17.0;63.9
45315;SHT31;31051;51.540;5.852;2023-06-04T21:23:41;16.7;64.9
45315;SHT31;31051;51.540;5.852;2023-06-04T21:36:30;16.2;66.0
45315;SHT31;31051;51.540;5.852;2023-06-04T21:49:29;16.0;66.3
45315;SHT31;31051;51.540;5.852;2023-06-04T22:02:29;15.6;67.5
45315;SHT31;31051;51.540;5.852;2023-06-04T22:15:27;15.2;67.7
45315;SHT31;31051;51.540;5.852;2023-06-04T22:28:16;14.8;68.3
45315;SHT31;31051;51.540;5.852;2023-06-04T22:41:16;14.7;68.5
45315;SHT31;31051;51.540;5.852;2023-06-04T22:54:15;14.4;69.3
45315;SHT31;31051;51.540;5.852;2023-06-04T23:07:15;14.1;70.1
45315;SHT31;31051;51.540;5.852;2023-06-04T23:20:14;13.9;71.1
45315;SHT31;31051;51.540;5.852;2023-06-04T23:33:13;13.6;71.8
45315;SHT31;31051;51.540;5.852;2023-06-04T23:46:13;13.4;72.4
45315;SHT31;31051;51.540;5.852;2023-06-04T23:59:12;13.0;73.7
